Corpus Christi, TX

8:12 PM CDT on April 26, 2017 (GMT -0500)
Corpus Christi International | | Change Station

Elev 43 ft 27.77 °N, 97.50 °W | Updated 21 minutes ago

Clear
Clear
85 °F
Feels Like 85 °F
N
9
Wind Variable Wind from NNW

Today
High -- | Low -- °F
--% Chance of Precip.
Yesterday
High -- | Low -- °F
Precip. -- in
Pressure 29.58 in
Visibility 10.0 miles
Clouds Few 25000 ft
Dew Point 49 °F
Humidity 29%
Rainfall 0.00 in
Snow Depth Not available.
6:54 AM 8:01 PM
New Moon, 0% visible
METAR KCRP 270051Z 33008KT 10SM FEW250 29/09 A2958 RMK AO2 SLP017 T02940094
Pressure 29.58 in
Visibility 10.0 miles
Clouds Few 25000 ft
Dew Point 49 °F
Humidity 29%
Rainfall 0.00 in
Snow Depth Not available.
6:54 AM 8:01 PM
New Moon, 0% visible
METAR KCRP 270051Z 33008KT 10SM FEW250 29/09 A2958 RMK AO2 SLP017 T02940094

Get Severe Weather Alerts

Thanks for signing up!

Be on the lookout for a verification email in your inbox.

You'll start receiving the daily forecast at 8 AM.

×

10-Day Weather Forecast

Almanac

Astronomy

Apr. 26, 2017 Rise Set
Actual Time
Civil Twilight
Nautical Twilight
Astronomical Twilight
Moon
Length of Visible Light
Length of Day
Tomorrow will be .
, % of the Moon is Illuminated

Today's Extremes

State Highs State Lows

Community

WunderPhotos

WunderBlog® & News

Nearby

Air Quality

  Air Quality AQ Index Pollutant
Not available.

Snow Depth

Station Depth Elevation

Earthquake Activity

City Distance Mag. Time & Date
Minimum magnitude displayed is 2.5.

Coastal Water Temperatures

Place Temperature

Stations

Nearby Weather Stations

Station Location Temp. Windchill Dew Point Humidity Wind Precip. Elev Updated Type
                   

Watches & Warnings

There are currently no watches in effect.